createdAt,value
2018-11-04T00:00:21.080Z,25.60
2018-11-04T00:01:21.122Z,24.90
2018-11-04T00:02:21.018Z,25.50
2018-11-04T00:03:21.135Z,24.50
2018-11-04T00:04:20.957Z,23.30
2018-11-04T00:05:20.928Z,26.30
2018-11-04T00:06:20.937Z,24.90
2018-11-04T00:07:20.950Z,25.30
2018-11-04T00:08:20.838Z,23.70
2018-11-04T00:09:20.860Z,27.50
2018-11-04T00:10:20.779Z,23.50
2018-11-04T00:11:20.739Z,25.00
2018-11-04T00:12:20.786Z,23.90
2018-11-04T00:13:20.776Z,24.30
2018-11-04T00:14:20.802Z,23.30
2018-11-04T00:15:20.626Z,23.60
2018-11-04T00:16:20.587Z,22.20
2018-11-04T00:17:20.567Z,23.30
2018-11-04T00:18:20.626Z,23.10
2018-11-04T00:19:20.502Z,22.10
2018-11-04T00:20:20.606Z,21.90
2018-11-04T00:21:20.438Z,22.60
2018-11-04T00:22:20.552Z,20.90
2018-11-04T00:23:20.377Z,23.70
2018-11-04T00:24:20.462Z,21.50
2018-11-04T00:25:20.308Z,21.90
2018-11-04T00:26:20.368Z,22.00
2018-11-04T00:27:20.270Z,22.70
2018-11-04T00:28:20.378Z,21.40
2018-11-04T00:29:20.190Z,21.00
2018-11-04T00:30:20.300Z,20.90
2018-11-04T00:31:20.131Z,21.10
2018-11-04T00:32:20.098Z,21.50
2018-11-04T00:33:20.070Z,20.30
2018-11-04T00:34:20.121Z,23.00
2018-11-04T00:35:20.010Z,22.40
2018-11-04T00:36:20.136Z,20.30
2018-11-04T00:37:20.037Z,20.60
2018-11-04T00:38:19.919Z,20.60
2018-11-04T00:39:20.048Z,21.40
2018-11-04T00:40:19.858Z,19.90
2018-11-04T00:41:19.959Z,20.60
2018-11-04T00:42:19.791Z,21.40
2018-11-04T00:43:19.758Z,20.10
2018-11-04T00:44:19.877Z,20.70
2018-11-04T00:45:19.834Z,20.60
2018-11-04T00:46:19.788Z,20.80
2018-11-04T00:47:19.638Z,20.70
2018-11-04T00:48:19.636Z,19.90
2018-11-04T00:49:19.580Z,18.50
2018-11-04T00:50:19.719Z,18.10
2018-11-04T00:51:19.512Z,19.40
2018-11-04T00:52:19.627Z,18.00
2018-11-04T00:53:19.446Z,18.20
2018-11-04T00:54:19.537Z,18.40
2018-11-04T00:55:19.392Z,20.30
2018-11-04T00:56:19.457Z,17.60
2018-11-04T00:57:19.327Z,16.80
2018-11-04T00:58:19.468Z,17.60
2018-11-04T00:59:19.270Z,17.80
2018-11-04T01:00:19.378Z,18.90
2018-11-04T01:01:19.216Z,17.50
2018-11-04T01:02:19.291Z,17.90
2018-11-04T01:03:19.187Z,17.50
2018-11-04T01:04:19.116Z,18.10
2018-11-04T01:05:19.076Z,15.80
2018-11-04T01:06:19.220Z,15.70
2018-11-04T01:07:19.032Z,18.20
2018-11-04T01:08:19.137Z,17.10
2018-11-04T01:09:18.982Z,14.80
2018-11-04T01:10:19.048Z,14.20
2018-11-04T01:11:18.897Z,16.90
2018-11-04T01:12:19.066Z,14.30
2018-11-04T01:13:18.841Z,16.40
2018-11-04T01:14:18.968Z,15.70
2018-11-04T01:15:18.779Z,14.50
2018-11-04T01:16:18.878Z,14.40
2018-11-04T01:17:18.719Z,17.00
2018-11-04T01:18:18.791Z,14.50
2018-11-04T01:19:18.659Z,15.30
2018-11-04T01:20:18.628Z,15.10
2018-11-04T01:21:18.587Z,15.00
2018-11-04T01:22:18.721Z,14.80
2018-11-04T01:23:18.531Z,15.40
2018-11-04T01:24:18.652Z,18.10
2018-11-04T01:25:18.479Z,16.30
2018-11-04T01:26:18.437Z,15.80
2018-11-04T01:27:18.547Z,13.80
2018-11-04T01:28:18.387Z,13.60
2018-11-04T01:29:18.511Z,14.00
2018-11-04T01:30:18.322Z,13.20
2018-11-04T01:31:18.281Z,14.00
2018-11-04T01:32:18.377Z,13.70
2018-11-04T01:33:18.221Z,15.00
2018-11-04T01:34:18.387Z,14.00
2018-11-04T01:35:18.191Z,14.50
2018-11-04T01:36:18.135Z,13.80
2018-11-04T01:37:18.098Z,15.20
2018-11-04T01:38:18.227Z,13.80
2018-11-04T01:39:18.065Z,14.20
2018-11-04T01:40:18.128Z,14.20
2018-11-04T01:41:17.972Z,14.00
2018-11-04T01:42:18.141Z,14.30
2018-11-04T01:43:17.908Z,15.70
2018-11-04T01:44:17.948Z,13.60
2018-11-04T01:45:17.848Z,14.70
2018-11-04T01:46:17.858Z,14.10
2018-11-04T01:47:17.866Z,15.60
2018-11-04T01:48:17.757Z,14.10
2018-11-04T01:49:17.781Z,14.10
2018-11-04T01:50:17.699Z,13.40
2018-11-04T01:51:17.689Z,14.20
2018-11-04T01:52:17.705Z,15.20
2018-11-04T01:53:17.609Z,13.90
2018-11-04T01:54:17.611Z,13.60
2018-11-04T01:55:17.556Z,14.40
2018-11-04T01:56:17.628Z,13.90
2018-11-04T01:57:17.480Z,12.90
2018-11-04T01:58:17.448Z,13.70
2018-11-04T01:59:17.550Z,13.10
2018-11-04T02:00:17.386Z,14.20
2018-11-04T02:01:17.458Z,14.90
2018-11-04T02:02:17.327Z,13.40
2018-11-04T02:03:17.307Z,13.10
2018-11-04T02:04:17.379Z,14.70
2018-11-04T02:05:17.239Z,14.50
2018-11-04T02:06:17.288Z,13.10
2018-11-04T02:07:17.179Z,13.20
2018-11-04T02:08:17.150Z,13.00
2018-11-04T02:09:17.111Z,14.00
2018-11-04T02:10:17.208Z,13.20
2018-11-04T02:11:17.047Z,13.10
2018-11-04T02:12:17.126Z,14.10
2018-11-04T02:13:16.989Z,14.70
2018-11-04T02:14:16.960Z,14.20
2018-11-04T02:15:17.037Z,13.90
2018-11-04T02:16:16.897Z,14.20
2018-11-04T02:17:16.958Z,15.40
2018-11-04T02:18:16.840Z,14.70
2018-11-04T02:19:16.816Z,13.90
2018-11-04T02:20:16.868Z,15.40
2018-11-04T02:21:16.747Z,14.20
2018-11-04T02:22:16.789Z,14.40
2018-11-04T02:23:16.695Z,13.40
2018-11-04T02:24:16.650Z,15.20
2018-11-04T02:25:16.629Z,14.50
2018-11-04T02:26:16.710Z,15.30
2018-11-04T02:27:16.556Z,15.80
2018-11-04T02:28:16.620Z,14.90
2018-11-04T02:29:23.830Z,14.50
2018-11-04T02:31:09.548Z,15.60
2018-11-04T02:32:09.438Z,14.10
2018-11-04T02:33:09.537Z,14.60
2018-11-04T02:34:09.379Z,14.30
2018-11-04T02:35:09.347Z,14.70
2018-11-04T02:36:09.321Z,14.80
2018-11-04T02:37:09.376Z,15.30
2018-11-04T02:38:09.258Z,15.00
2018-11-04T02:39:09.388Z,14.10
2018-11-04T02:40:09.208Z,16.00
2018-11-04T02:41:09.161Z,13.50
2018-11-04T02:42:09.300Z,14.50
2018-11-04T02:43:09.117Z,14.60
2018-11-04T02:44:09.209Z,14.60
2018-11-04T02:45:09.061Z,15.30
2018-11-04T02:46:09.010Z,14.60
2018-11-04T02:47:09.033Z,15.00
2018-11-04T02:48:09.028Z,16.10
2018-11-04T02:49:08.922Z,14.60
2018-11-04T02:50:09.046Z,14.50
2018-11-04T02:51:08.950Z,14.80
2018-11-04T02:52:08.829Z,14.20
2018-11-04T02:53:08.966Z,14.10
2018-11-04T02:54:08.771Z,14.60
2018-11-04T02:55:08.877Z,13.90
2018-11-04T02:56:08.702Z,14.40
2018-11-04T02:57:08.676Z,17.20
2018-11-04T02:58:08.811Z,15.00
2018-11-04T02:59:08.620Z,13.70
2018-11-04T03:00:08.706Z,16.10
2018-11-04T03:01:08.549Z,17.20
2018-11-04T03:02:08.548Z,14.20
2018-11-04T03:03:08.628Z,14.10
2018-11-04T03:04:08.465Z,16.10
2018-11-04T03:05:08.544Z,14.90
2018-11-04T03:06:08.407Z,14.00
2018-11-04T03:07:08.365Z,14.60
2018-11-04T03:08:08.338Z,14.20
2018-11-04T03:09:08.457Z,14.60
2018-11-04T03:10:08.267Z,15.40
2018-11-04T03:11:08.380Z,16.20
2018-11-04T03:12:08.222Z,14.40
2018-11-04T03:13:08.189Z,14.70
2018-11-04T03:14:08.290Z,16.00
2018-11-04T03:15:08.117Z,16.50
2018-11-04T03:16:08.208Z,15.30
2018-11-04T03:17:08.059Z,15.70
2018-11-04T03:18:08.030Z,13.90
2018-11-04T03:19:08.002Z,13.90
2018-11-04T03:20:08.127Z,15.70
2018-11-04T03:21:07.947Z,15.00
2018-11-04T03:22:08.038Z,13.60
2018-11-04T03:23:07.881Z,16.20
2018-11-04T03:24:08.057Z,16.90
2018-11-04T03:25:07.820Z,14.90
2018-11-04T03:26:07.971Z,16.50
2018-11-04T03:27:07.755Z,13.90
2018-11-04T03:28:07.890Z,14.90
2018-11-04T03:29:07.698Z,14.80
2018-11-04T03:30:07.788Z,15.20
2018-11-04T03:31:07.641Z,15.70
2018-11-04T03:32:07.817Z,17.90
2018-11-04T03:33:07.575Z,14.90
2018-11-04T03:34:07.540Z,16.30
2018-11-04T03:35:07.757Z,15.70
2018-11-04T03:36:07.479Z,15.00
2018-11-04T03:37:07.638Z,15.20
2018-11-04T03:38:07.421Z,14.80
2018-11-04T03:39:07.548Z,16.20
2018-11-04T03:40:07.369Z,14.20
2018-11-04T03:41:07.458Z,14.70
2018-11-04T03:42:07.292Z,15.20
2018-11-04T03:43:07.390Z,14.60
2018-11-04T03:44:07.227Z,15.60
2018-11-04T03:45:07.199Z,16.10
2018-11-04T03:46:07.170Z,16.40
2018-11-04T03:47:07.203Z,15.70
2018-11-04T03:48:07.113Z,14.70
2018-11-04T03:49:07.108Z,15.00
2018-11-04T03:50:07.120Z,14.60
2018-11-04T03:51:07.018Z,13.90
2018-11-04T03:52:07.028Z,14.20
2018-11-04T03:53:06.957Z,14.70
2018-11-04T03:54:07.037Z,15.00
2018-11-04T03:55:06.897Z,14.80
2018-11-04T03:56:06.869Z,13.80
2018-11-04T03:57:06.961Z,13.40
2018-11-04T03:58:06.801Z,14.60
2018-11-04T03:59:06.873Z,14.20
2018-11-04T04:00:06.740Z,14.00
2018-11-04T04:01:06.708Z,15.30
2018-11-04T04:02:06.788Z,14.70
2018-11-04T04:03:06.657Z,14.10
2018-11-04T04:04:06.701Z,14.40
2018-11-04T04:05:06.590Z,15.50
2018-11-04T04:06:06.560Z,14.70
2018-11-04T04:07:06.539Z,14.90
2018-11-04T04:08:06.627Z,13.80
2018-11-04T04:09:06.468Z,14.00
2018-11-04T04:10:06.538Z,14.80
2018-11-04T04:11:06.396Z,14.30
2018-11-04T04:12:06.448Z,14.90
2018-11-04T04:13:06.341Z,15.40
2018-11-04T04:14:06.365Z,15.70
2018-11-04T04:15:06.305Z,15.00
2018-11-04T04:16:06.379Z,15.60
2018-11-04T04:17:06.217Z,17.20
2018-11-04T04:18:06.334Z,15.20
2018-11-04T04:19:06.161Z,16.30
2018-11-04T04:20:06.205Z,16.30
2018-11-04T04:21:06.097Z,15.10
2018-11-04T04:22:06.061Z,16.00
2018-11-04T04:23:06.056Z,14.20
2018-11-04T04:24:06.140Z,15.90
2018-11-04T04:25:05.980Z,15.30
2018-11-04T04:26:06.041Z,15.90
2018-11-04T04:27:05.910Z,16.80
2018-11-04T04:28:05.949Z,18.40
2018-11-04T04:29:05.856Z,16.90
2018-11-04T04:30:05.957Z,16.30
2018-11-04T04:31:05.788Z,16.20
2018-11-04T04:32:05.869Z,16.70
2018-11-04T04:33:05.730Z,16.30
2018-11-04T04:34:05.787Z,15.80
2018-11-04T04:35:05.678Z,15.40
2018-11-04T04:36:05.806Z,15.40
2018-11-04T04:37:05.612Z,15.80
2018-11-04T04:38:05.581Z,15.60
2018-11-04T04:39:05.550Z,14.60
2018-11-04T04:40:05.617Z,14.60
2018-11-04T04:41:05.490Z,15.20
2018-11-04T04:42:05.551Z,15.40
2018-11-04T04:43:05.428Z,14.50
2018-11-04T04:44:05.548Z,14.90
2018-11-04T04:45:05.367Z,14.40
2018-11-04T04:46:05.466Z,14.80
2018-11-04T04:47:05.307Z,14.50
2018-11-04T04:48:05.367Z,14.20
2018-11-04T04:49:05.240Z,14.80
2018-11-04T04:50:05.398Z,14.00
2018-11-04T04:51:05.177Z,15.10
2018-11-04T04:52:05.306Z,15.50
2018-11-04T04:53:05.118Z,13.30
2018-11-04T04:54:05.087Z,16.40
2018-11-04T04:55:05.061Z,14.10
2018-11-04T04:56:05.118Z,14.00
2018-11-04T04:57:05.038Z,13.50
2018-11-04T04:58:05.144Z,14.20
2018-11-04T04:59:04.950Z,14.20
2018-11-04T05:00:04.911Z,15.60
2018-11-04T05:01:05.069Z,14.70
2018-11-04T05:02:04.848Z,13.40
2018-11-04T05:03:04.976Z,13.70
2018-11-04T05:04:04.791Z,14.80
2018-11-04T05:05:04.758Z,14.30
2018-11-04T05:06:04.719Z,15.50
2018-11-04T05:07:04.788Z,14.30
2018-11-04T05:08:04.669Z,14.40
2018-11-04T05:09:04.810Z,15.20
2018-11-04T05:10:04.597Z,15.60
2018-11-04T05:11:04.725Z,14.00
2018-11-04T05:12:04.546Z,16.50
2018-11-04T05:13:04.650Z,14.70
2018-11-04T05:14:04.478Z,14.40
2018-11-04T05:15:04.637Z,14.70
2018-11-04T05:16:04.421Z,14.40
2018-11-04T05:17:04.552Z,13.70
2018-11-04T05:18:04.360Z,14.20
2018-11-04T05:19:04.477Z,15.70
2018-11-04T05:20:04.303Z,16.40
2018-11-04T05:21:04.267Z,15.70
2018-11-04T05:22:04.387Z,17.70
2018-11-04T05:23:04.211Z,15.90
2018-11-04T05:24:04.308Z,16.40
2018-11-04T05:25:04.154Z,15.50
2018-11-04T05:26:04.118Z,15.80
2018-11-04T05:27:04.093Z,15.20
2018-11-04T05:28:04.230Z,15.50
2018-11-04T05:29:04.018Z,15.90
2018-11-04T05:30:04.128Z,15.00
2018-11-04T05:31:03.968Z,17.10
2018-11-04T05:32:03.936Z,16.80
2018-11-04T05:33:04.047Z,16.10
2018-11-04T05:34:03.871Z,17.00
2018-11-04T05:35:03.958Z,16.30
2018-11-04T05:36:03.808Z,16.80
2018-11-04T05:37:03.779Z,15.70
2018-11-04T05:38:03.913Z,17.20
2018-11-04T05:39:03.718Z,17.40
2018-11-04T05:40:03.908Z,17.50
2018-11-04T05:41:03.663Z,18.80
2018-11-04T05:42:03.631Z,18.20
2018-11-04T05:43:03.598Z,17.50
2018-11-04T05:44:03.721Z,16.10
2018-11-04T05:45:03.537Z,16.50
2018-11-04T05:46:03.633Z,15.80
2018-11-04T05:47:03.488Z,16.10
2018-11-04T05:48:03.446Z,16.90
2018-11-04T05:49:03.553Z,20.20
2018-11-04T05:50:03.391Z,18.40
2018-11-04T05:51:03.560Z,17.80
2018-11-04T05:52:03.327Z,20.20
2018-11-04T05:53:03.300Z,20.20
2018-11-04T05:54:03.268Z,16.70
2018-11-04T05:55:03.298Z,19.40
2018-11-04T05:56:03.216Z,17.80
2018-11-04T05:57:03.301Z,18.80
2018-11-04T05:58:03.153Z,17.20
2018-11-04T05:59:03.211Z,16.20
2018-11-04T06:00:03.092Z,17.30
2018-11-04T06:01:03.128Z,16.90
2018-11-04T06:02:03.038Z,17.50
2018-11-04T06:03:03.028Z,17.90
2018-11-04T06:04:03.047Z,17.60
2018-11-04T06:05:02.939Z,17.80
2018-11-04T06:06:02.957Z,19.00
2018-11-04T06:07:02.882Z,18.40
2018-11-04T06:08:02.970Z,20.80
2018-11-04T06:09:02.871Z,20.30
2018-11-04T06:10:02.780Z,18.20
2018-11-04T06:11:02.889Z,18.40
2018-11-04T06:12:02.729Z,20.20
2018-11-04T06:13:02.801Z,22.40
2018-11-04T06:14:02.665Z,22.10
2018-11-04T06:15:02.716Z,22.50
2018-11-04T06:16:02.612Z,23.40
2018-11-04T06:17:02.619Z,22.10
2018-11-04T06:18:02.551Z,22.00
2018-11-04T06:19:02.643Z,22.70
2018-11-04T06:20:02.548Z,23.70
2018-11-04T06:21:02.460Z,23.10
2018-11-04T06:22:02.552Z,24.70
2018-11-04T06:23:02.401Z,21.80
2018-11-04T06:24:02.471Z,22.40
2018-11-04T06:25:02.470Z,20.80
2018-11-04T06:26:02.314Z,22.60
2018-11-04T06:27:02.389Z,24.40
2018-11-04T06:28:02.249Z,25.90
2018-11-04T06:29:02.303Z,24.00
2018-11-04T06:30:02.189Z,25.00
2018-11-04T06:31:02.163Z,22.20
2018-11-04T06:32:02.219Z,22.00
2018-11-04T06:33:02.101Z,23.70
2018-11-04T06:34:02.091Z,23.50
2018-11-04T06:35:02.048Z,23.40
2018-11-04T06:36:02.017Z,24.40
2018-11-04T06:37:02.051Z,23.70
2018-11-04T06:38:01.949Z,21.50
2018-11-04T06:39:02.059Z,26.00
2018-11-04T06:40:01.900Z,24.00
2018-11-04T06:41:01.877Z,24.00
2018-11-04T06:42:01.882Z,23.00
2018-11-04T06:43:01.913Z,24.30
2018-11-04T06:44:01.776Z,25.40
2018-11-04T06:45:01.900Z,23.70
2018-11-04T06:46:01.717Z,25.90
2018-11-04T06:47:01.683Z,22.90
2018-11-04T06:48:01.819Z,25.00
2018-11-04T06:49:01.638Z,25.80
2018-11-04T06:50:01.731Z,26.20
2018-11-04T06:51:01.570Z,24.00
2018-11-04T06:52:01.541Z,20.90
2018-11-04T06:53:01.510Z,26.20
2018-11-04T06:54:01.560Z,23.20
2018-11-04T06:55:01.449Z,25.10
2018-11-04T06:56:01.577Z,25.90
2018-11-04T06:57:01.388Z,23.30
2018-11-04T06:58:01.485Z,22.20
2018-11-04T06:59:01.331Z,24.30
2018-11-04T07:00:01.506Z,25.70
2018-11-04T07:01:01.285Z,22.80
2018-11-04T07:02:01.399Z,26.70
2018-11-04T07:03:01.228Z,25.20
2018-11-04T07:04:01.312Z,25.70
2018-11-04T07:05:01.202Z,26.90
2018-11-04T07:06:01.231Z,24.40
2018-11-04T07:07:01.099Z,25.00
2018-11-04T07:08:01.073Z,25.10
2018-11-04T07:09:01.246Z,26.90
2018-11-04T07:10:01.013Z,23.20
2018-11-04T07:11:01.160Z,24.50
2018-11-04T07:12:00.952Z,24.20
2018-11-04T07:13:00.922Z,24.90
2018-11-04T07:14:00.891Z,23.30
2018-11-04T07:15:00.983Z,23.60
2018-11-04T07:16:00.842Z,25.60
2018-11-04T07:17:00.887Z,24.70
2018-11-04T07:18:00.789Z,25.30
2018-11-04T07:19:00.750Z,24.80
2018-11-04T07:20:00.895Z,25.50
2018-11-04T07:21:00.690Z,23.90
2018-11-04T07:22:00.842Z,29.10
2018-11-04T07:23:00.630Z,23.40
2018-11-04T07:24:00.600Z,25.10
2018-11-04T07:25:00.569Z,25.80
2018-11-04T07:26:00.660Z,26.10
2018-11-04T07:27:00.524Z,24.50
2018-11-04T07:28:00.661Z,24.70
2018-11-04T07:29:00.460Z,26.30
2018-11-04T07:30:00.588Z,25.10
2018-11-04T07:31:00.401Z,27.60
2018-11-04T07:32:00.504Z,25.30
2018-11-04T07:33:00.340Z,26.50
2018-11-04T07:34:00.511Z,26.50
2018-11-04T07:35:00.285Z,26.30
2018-11-04T07:36:00.409Z,25.50
2018-11-04T07:37:00.229Z,26.80
2018-11-04T07:38:00.329Z,25.30
2018-11-04T07:39:00.169Z,26.80
2018-11-04T07:40:00.139Z,26.30
2018-11-04T07:41:00.110Z,28.40
2018-11-04T07:42:00.250Z,26.90
2018-11-04T07:43:00.058Z,26.20
2018-11-04T07:44:00.168Z,29.00
2018-11-04T07:45:00.008Z,25.90
2018-11-04T07:46:00.179Z,27.60
2018-11-04T07:46:59.941Z,33.60
2018-11-04T07:48:00.101Z,45.30
2018-11-04T07:48:59.885Z,45.80
2018-11-04T07:50:00.012Z,43.70
2018-11-04T07:50:59.833Z,45.90
2018-11-04T07:51:59.804Z,47.40
2018-11-04T07:52:59.928Z,62.40
2018-11-04T07:53:59.749Z,56.70
2018-11-04T07:54:59.840Z,44.80
2018-11-04T07:55:59.838Z,30.20
2018-11-04T07:56:59.748Z,27.60
2018-11-04T07:57:59.758Z,27.90
2018-11-04T07:58:59.605Z,26.90
2018-11-04T07:59:59.760Z,29.10
2018-11-04T08:00:59.643Z,27.40
2018-11-04T08:01:59.519Z,36.10
2018-11-04T08:02:59.589Z,33.10
2018-11-04T08:03:59.499Z,29.10
2018-11-04T08:04:59.493Z,28.10
2018-11-04T08:05:59.417Z,26.60
2018-11-04T08:06:59.382Z,27.50
2018-11-04T08:07:59.411Z,27.80
2018-11-04T08:08:59.329Z,26.50
2018-11-04T08:09:59.328Z,28.00
2018-11-04T08:10:59.269Z,27.80
2018-11-04T08:11:59.240Z,25.50
2018-11-04T08:12:59.214Z,28.20
2018-11-04T08:13:59.250Z,25.70
2018-11-04T08:14:59.170Z,28.00
2018-11-04T08:15:59.168Z,27.10
2018-11-04T08:16:59.104Z,25.50
2018-11-04T08:17:59.078Z,27.30
2018-11-04T08:18:59.081Z,26.80
2018-11-04T08:19:59.019Z,25.80
2018-11-04T08:20:59.089Z,26.30
2018-11-04T08:21:58.961Z,25.50
2018-11-04T08:22:58.936Z,55.20
2018-11-04T08:23:58.909Z,34.30
2018-11-04T08:24:58.919Z,33.00
2018-11-04T08:25:58.853Z,31.20
2018-11-04T08:26:58.937Z,32.80
2018-11-04T08:27:58.804Z,28.90
2018-11-04T08:28:58.848Z,28.90
2018-11-04T08:30:06.121Z,29.80
2018-11-04T08:31:51.795Z,26.60
2018-11-04T08:32:51.693Z,26.50
2018-11-04T08:34:44.755Z,27.40
2018-11-04T08:35:44.642Z,31.80
2018-11-04T08:37:37.652Z,28.80
2018-11-04T08:38:37.551Z,27.30
2018-11-04T08:40:30.646Z,28.00
2018-11-04T08:41:30.400Z,27.70
2018-11-04T08:43:23.287Z,29.00
2018-11-04T08:44:23.333Z,27.90
2018-11-04T08:46:16.143Z,27.90
2018-11-04T08:47:16.099Z,27.70
2018-11-04T08:49:08.993Z,27.80
2018-11-04T08:50:09.030Z,29.20
2018-11-04T08:52:01.903Z,27.70
2018-11-04T08:53:01.799Z,26.60
2018-11-04T08:54:54.694Z,26.60
2018-11-04T08:55:54.740Z,25.60
2018-11-04T08:57:47.601Z,26.10
2018-11-04T08:58:47.509Z,26.40
2018-11-04T09:00:40.451Z,27.10
2018-11-04T09:01:40.360Z,25.60
2018-11-04T09:03:33.311Z,26.70
2018-11-04T09:04:33.211Z,25.60
2018-11-04T09:06:26.165Z,27.00
2018-11-04T09:07:26.068Z,26.80
2018-11-04T09:09:19.011Z,27.50
2018-11-04T09:10:18.913Z,27.10
2018-11-04T09:12:11.860Z,26.20
2018-11-04T09:13:11.761Z,25.80
2018-11-04T09:15:04.719Z,25.50
2018-11-04T09:16:04.689Z,26.00
2018-11-04T09:17:57.563Z,25.20
2018-11-04T09:18:57.468Z,25.00
2018-11-04T09:20:50.411Z,25.60
2018-11-04T09:21:50.475Z,25.40
2018-11-04T09:23:43.351Z,23.90
2018-11-04T09:24:43.167Z,24.20
2018-11-04T09:26:36.051Z,23.80
2018-11-04T09:27:36.021Z,24.20
2018-11-04T09:29:28.959Z,26.60
2018-11-04T09:30:28.876Z,24.80
2018-11-04T09:32:21.760Z,25.40
2018-11-04T09:33:21.722Z,23.70
2018-11-04T09:35:14.764Z,24.20
2018-11-04T09:36:14.706Z,24.20
2018-11-04T09:38:07.521Z,25.40
2018-11-04T09:39:07.419Z,26.60
2018-11-04T09:41:00.372Z,26.30
2018-11-04T09:42:00.270Z,25.60
2018-11-04T09:43:00.258Z,28.50
2018-11-04T09:44:00.221Z,28.90
2018-11-04T09:45:00.266Z,31.80
2018-11-04T09:46:00.190Z,25.20
2018-11-04T09:47:00.183Z,25.80
2018-11-04T09:48:00.181Z,24.90
2018-11-04T09:49:00.089Z,25.70
2018-11-04T09:50:00.152Z,24.70
2018-11-04T09:51:00.037Z,25.90
2018-11-04T09:52:00.020Z,25.00
2018-11-04T09:52:59.995Z,23.50
2018-11-04T09:54:00.020Z,24.30
2018-11-04T09:54:59.940Z,25.50
2018-11-04T09:55:59.931Z,24.90
2018-11-04T09:56:59.891Z,26.80
2018-11-04T09:57:59.937Z,26.00
2018-11-04T09:58:59.837Z,24.70
2018-11-04T09:59:59.848Z,26.10
2018-11-04T10:00:59.788Z,25.30
2018-11-04T10:01:59.856Z,24.90
2018-11-04T10:02:59.746Z,25.60
2018-11-04T10:03:59.711Z,22.90
2018-11-04T10:04:59.681Z,24.50
2018-11-04T10:05:59.702Z,26.30
2018-11-04T10:06:59.642Z,25.10
2018-11-04T10:07:59.720Z,25.50
2018-11-04T10:08:59.621Z,24.90
2018-11-04T10:09:59.560Z,25.10
2018-11-04T10:10:59.638Z,25.20
2018-11-04T10:11:59.507Z,25.10
2018-11-04T10:12:59.547Z,24.60
2018-11-04T10:13:59.471Z,25.00
2018-11-04T10:14:59.458Z,24.10
2018-11-04T10:15:59.408Z,26.30
2018-11-04T10:16:59.471Z,26.00
2018-11-04T10:17:59.363Z,24.20
2018-11-04T10:18:59.546Z,24.60
2018-11-04T10:19:59.668Z,25.70
2018-11-04T10:20:59.802Z,23.60
2018-11-04T10:21:59.300Z,24.20
2018-11-04T10:22:59.231Z,25.90
2018-11-04T10:23:59.331Z,25.10
2018-11-04T10:24:59.219Z,23.10
2018-11-04T10:25:59.162Z,24.10
2018-11-04T10:26:59.248Z,23.30
2018-11-04T10:27:59.110Z,25.70
2018-11-04T10:28:59.155Z,24.30
2018-11-04T10:29:59.167Z,26.60
2018-11-04T10:30:59.030Z,25.50
2018-11-04T10:31:59.076Z,24.10
2018-11-04T10:32:58.980Z,25.00
2018-11-04T10:33:58.977Z,25.30
2018-11-04T10:34:58.937Z,24.90
2018-11-04T10:35:58.991Z,23.80
2018-11-04T10:36:58.906Z,24.50
2018-11-04T10:37:58.910Z,24.50
2018-11-04T10:38:58.827Z,25.10
2018-11-04T10:39:58.926Z,24.90
2018-11-04T10:40:58.781Z,25.10
2018-11-04T10:41:58.828Z,24.50
2018-11-04T10:42:58.727Z,23.80
2018-11-04T10:43:58.737Z,26.60
2018-11-04T10:44:58.680Z,24.70
2018-11-04T10:45:58.664Z,24.60
2018-11-04T10:46:58.657Z,24.00
2018-11-04T10:47:58.618Z,24.20
2018-11-04T10:48:58.683Z,24.20
2018-11-04T10:49:58.657Z,23.70
2018-11-04T10:50:58.537Z,23.90
2018-11-04T10:51:58.507Z,25.50
2018-11-04T10:52:58.598Z,24.50
2018-11-04T10:53:58.463Z,23.40
2018-11-04T10:54:58.510Z,26.90
2018-11-04T10:55:58.495Z,24.60
2018-11-04T10:56:58.429Z,24.50
2018-11-04T10:57:58.370Z,24.70
2018-11-04T10:58:58.440Z,23.30
2018-11-04T10:59:58.318Z,24.10
2018-11-04T11:00:58.306Z,24.40
2018-11-04T11:01:58.268Z,24.10
2018-11-04T11:02:58.257Z,24.30
2018-11-04T11:03:58.240Z,25.10
2018-11-04T11:04:58.280Z,25.20
2018-11-04T11:05:58.185Z,56.30
2018-11-04T11:06:58.196Z,52.30
2018-11-04T11:07:58.129Z,34.40
2018-11-04T11:08:58.199Z,54.00
2018-11-04T11:09:58.090Z,35.10
2018-11-04T11:10:58.187Z,31.90
2018-11-04T11:11:58.041Z,58.30
2018-11-04T11:12:58.130Z,25.60
2018-11-04T11:13:57.991Z,25.90
2018-11-04T11:14:58.042Z,30.20
2018-11-04T11:15:57.950Z,30.60
2018-11-04T11:16:57.931Z,29.70
2018-11-04T11:17:57.959Z,30.30
2018-11-04T11:18:57.885Z,25.60
2018-11-04T11:19:57.970Z,28.80
2018-11-04T11:20:57.838Z,27.10
2018-11-04T11:21:57.817Z,25.70
2018-11-04T11:22:57.885Z,25.80
2018-11-04T11:23:57.801Z,26.20
2018-11-04T11:24:57.748Z,26.00
2018-11-04T11:25:57.815Z,27.20
2018-11-04T11:26:57.818Z,25.90
2018-11-04T11:27:57.697Z,27.40
2018-11-04T11:28:57.761Z,25.50
2018-11-04T11:29:57.699Z,24.20
2018-11-04T11:30:57.646Z,26.60
2018-11-04T11:31:57.598Z,24.30
2018-11-04T11:32:57.660Z,24.40
2018-11-04T11:33:57.560Z,25.30
2018-11-04T11:34:57.572Z,26.50
2018-11-04T11:35:57.497Z,25.30
2018-11-04T11:36:57.589Z,24.40
2018-11-04T11:37:57.578Z,25.10
2018-11-04T11:38:57.499Z,24.00
2018-11-04T11:39:57.420Z,23.90
2018-11-04T11:40:57.506Z,26.00
2018-11-04T11:41:57.378Z,23.70
2018-11-04T11:42:57.360Z,23.60
2018-11-04T11:43:57.432Z,23.70
2018-11-04T11:44:57.372Z,23.80
2018-11-04T11:45:57.336Z,23.60
2018-11-04T11:46:57.271Z,23.80
2018-11-04T11:47:57.247Z,24.00
2018-11-04T11:48:57.231Z,24.20
2018-11-04T11:49:57.258Z,24.70
2018-11-04T11:50:57.191Z,24.70
2018-11-04T11:51:57.281Z,26.40
2018-11-04T11:52:57.147Z,23.90
2018-11-04T11:53:57.117Z,24.90
2018-11-04T11:54:57.224Z,23.30
2018-11-04T11:55:57.083Z,25.80
2018-11-04T11:56:57.119Z,23.20
2018-11-04T11:57:57.037Z,24.10
2018-11-04T11:58:57.016Z,23.30
2018-11-04T11:59:57.005Z,24.50
2018-11-04T12:00:57.028Z,24.00
2018-11-04T12:01:56.958Z,23.80
2018-11-04T12:02:57.047Z,23.50
2018-11-04T12:03:56.945Z,24.70
2018-11-04T12:04:56.895Z,24.90
2018-11-04T12:05:56.968Z,23.60
2018-11-04T12:06:56.854Z,24.10
2018-11-04T12:07:56.887Z,25.40
2018-11-04T12:08:56.827Z,24.10
2018-11-04T12:09:57.810Z,23.70
2018-11-04T12:10:56.760Z,24.70
2018-11-04T12:11:56.806Z,24.30
2018-11-04T12:12:56.724Z,24.00
2018-11-04T12:13:56.818Z,24.50
2018-11-04T12:14:56.686Z,23.40
2018-11-04T12:15:56.732Z,24.10
2018-11-04T12:16:56.625Z,24.20
2018-11-04T12:17:56.780Z,23.90
2018-11-04T12:18:56.586Z,24.20
2018-11-04T12:19:56.570Z,29.20
2018-11-04T12:20:56.550Z,37.90
2018-11-04T12:21:56.674Z,28.70
2018-11-04T12:22:56.520Z,36.80
2018-11-04T12:23:56.576Z,48.00
2018-11-04T12:24:56.592Z,46.80
2018-11-04T12:25:56.449Z,78.90
2018-11-04T12:26:56.500Z,33.70
2018-11-04T12:27:56.398Z,25.50
2018-11-04T12:28:56.520Z,47.40
2018-11-04T12:29:56.361Z,57.90
2018-11-04T12:30:56.427Z,52.50
2018-11-04T12:31:56.322Z,35.60
2018-11-04T12:32:56.440Z,32.50
2018-11-04T12:33:56.288Z,27.60
2018-11-04T12:34:56.347Z,25.40
2018-11-04T12:35:56.246Z,24.90
2018-11-04T12:36:56.373Z,24.90
2018-11-04T12:37:56.210Z,23.30
2018-11-04T12:38:56.283Z,24.40
2018-11-04T12:39:56.173Z,23.70
2018-11-04T12:40:56.136Z,23.90
2018-11-04T12:41:56.135Z,24.80
2018-11-04T12:42:56.197Z,23.40
2018-11-04T12:43:56.096Z,23.50
2018-11-04T12:44:56.216Z,23.60
2018-11-04T12:45:56.056Z,22.80
2018-11-04T12:46:56.131Z,23.70
2018-11-04T12:47:56.009Z,23.70
2018-11-04T12:48:56.141Z,22.70
2018-11-04T12:49:55.986Z,22.40
2018-11-04T12:50:56.061Z,22.10
2018-11-04T12:51:55.946Z,22.60
2018-11-04T12:52:55.948Z,22.10
2018-11-04T12:53:55.971Z,22.90
2018-11-04T12:54:55.883Z,23.50
2018-11-04T12:55:55.986Z,23.10
2018-11-04T12:56:55.850Z,23.10
2018-11-04T12:57:55.897Z,23.20
2018-11-04T12:58:55.810Z,22.30
2018-11-04T12:59:55.911Z,22.40
2018-11-04T13:00:55.782Z,22.80
2018-11-04T13:01:55.974Z,21.80
2018-11-04T13:02:55.736Z,23.00
2018-11-04T13:03:55.839Z,22.80
2018-11-04T13:04:55.697Z,23.30
2018-11-04T13:05:55.854Z,22.70
2018-11-04T13:06:55.670Z,23.00
2018-11-04T13:07:55.646Z,23.10
2018-11-04T13:08:55.627Z,22.60
2018-11-04T13:09:55.714Z,22.50
2018-11-04T13:10:55.590Z,22.20
2018-11-04T13:11:55.686Z,21.90
2018-11-04T13:12:55.700Z,22.30
2018-11-04T13:13:55.543Z,22.40
2018-11-04T13:14:55.611Z,22.30